Kenvil, New Jersey
Current Conditions -  °F | °C
As of 11:53 AM on Friday 28 Nov 2014 (Local Time) from KCDW Reporting Station
Overcast Overcast  
Wind Chill: 25°   Ceiling: 3800
Heat Index: 34°   Visibility: 10mi
Dew Point: 19°   Wind: 14mph
Humidity: 54%   Direction: 300°WNW
Pressure: 30.17"   Gusts: 20mph
Location:  40.88°N, 74.62°W
Report Text: KCDW 281653Z AUTO 30012G17KT 10SM OVC038 01/M07 A3017 RMK AO2 SLP223 T00111072 TSNO
Loading
Personal Weather Stations






























Interactive Weather Map New forecast layout! Learn more

10-Day Weather Forecast

Advertisements
Track Severe Weather on mobile